Hovedside
METAR-TAF:

METAR-TAF

Lufthavner :

Enontekis, Finland

Enontekiö lufthavn

breddegrad: 68-21-52N, lengdegrad: 023-25-39E, høyde over havet: 308 m

Gjeldene værobservasjon

Denne rapporten ble laget for 20 minutter siden, klokken 05:50 UTC
Vind 6 kt fra Vest-sørvest
Temperatur -10°C
Luftfuktighet 85%
Trykk 1008 hPa
Sikt 10 km eller mer
ingen skyer under 1500 m og ingen bygeskyer

METAR: EFET 240550Z AUTO 24006KT CAVOK M10/M12 Q1008

Tid: 08:10 (06:10 UTC)

Varsel

Denne rapporten ble laget for 24 timer og 43 minutter siden, klokken 05:27 UTC
Varsel gyldig fra 23. klokken 06 UTC til 23. klokken 08 UTC
Vind 8 kt fra Vest
Sikt 10 km eller mer
ingen skyer under 1500 m og ingen bygeskyer
Midlertidig
fra 23. klokken 06 UTC til 23. klokken 08 UTC
Sikt: 7000 m
lette snøbyger

TAF: EFET 230527Z 2306/2308 26008KT CAVOK TEMPO 2306/2308 7000 -SHSN

Værobservasjoner og værvarsel for over 4000 flyplasser (METAR- og TAF-rapporter).

Tilgjengelige stasjoner er representert av de røde og gule prikkene på kartet.

Hold musepekeren over prikken for å se navnet på stasjonen.

Klikk så for å se værobservasjoner og -varsler.

For å forandre kartet kan du klikke på den grønne knappen med svart kryss for å zoome inn, på den grønne knappen med strek for å zoome ut, eller på de grønne pilene for å se tilstøtende kart.


METAR-TAF: